KCSQ/CSQ METAR and TAF weather

Enter ICAO airport designator
Station Type Date Time Source
KCSQ METAR 2021/07/26 13:15 UTC NOAA

KCSQ 261315Z AUTO 00000KT 4SM BR CLR 21/21 A3008 RMK AO2


Station Type Date Time Source
KCSQ Decoded METAR 2021/07/26 13:15 UTC NOAA

Creston, IA, United States (KCSQ) 41-01N 094-22W
Jul 26, 2021 - 09:15 AM EDT / 2021.07.26 1315 UTC
Wind: Calm:0
Visibility: 4 mile(s):0
Sky conditions: clear
Weather: mist
Temperature: 69 F (21 C)
Dew Point: 69 F (21 C)
Relative Humidity: 100%
Pressure (altimeter): 30.08 in. Hg (1018 hPa)
ob: KCSQ 261315Z AUTO 00000KT 4SM BR CLR 21/21 A3008 RMK AO2
cycle: 13

Station Type Date Time Source
KCSQ TAF UTC NOAA

Error!

Example: see airport list